Gladeville, Tennessee
Current Conditions -  °F | °C
As of 5:53 PM on Wednesday 28 Jan 2015 (Local Time) from KBNA Reporting Station
Scattered Clouds Scattered Clouds  
Wind Chill: 46°   Ceiling: Unl
Heat Index: 46°   Visibility: 10mi
Dew Point: 24°   Wind: 3mph
Humidity: 42%   Direction: 160°SSE
Pressure: 30.21"   Gusts: NA
Location:  36.11°N, 86.42°W
Report Text: KBNA 282353Z 16003KT 10SM SCT250 08/M04 A3021 RMK AO2 SLP231 T00781044 10106 20061 55010 $
Loading
Personal Weather Stations






























Interactive Weather Map New forecast layout! Learn more

10-Day Weather Forecast

Advertisements
Track Severe Weather on mobile